Archival Weather

Snohomish County (Paine Fld)

Everett, Washington (KPAE)

Report from: Sunday, November 19, 2023 5:14 AM PST
Current time: Friday, June 21, 2024 12:06 AM PDT

Current weather – Weather history – Daily summaries
Weather forecast

Present weatherHeavy rain, mist
Temperature7.8°C (46.0°F)
Wind chill5.2°C (41.4°F)
Dew point5.6°C (42.1°F)
Winds 8 kts (4.1 m/s, 9.2 mph) South-Southeast (150°)
Visibility2 mi. (3.2 km)
Clouds Ceiling: Broken clouds 2,500 ft. (762 m)
Overcast 3,100 ft. (945 m)
Altimeter30.02 in.Hg (1017 mB)
Precipitiation0.08 in. (2 mm)
Precip. events Rain began 12:58 PM
Relative humidity86 %
Density altitude-846 ft. (-258 m)
Remarks Fully automated report
Automated weather observing station with precipitation discriminator
Flight conditions Instrument Meteorological Conditions
Raw dataKPAE 191314Z AUTO 15008KT 2SM +RA BR BKN025 OVC031 08/06 A3002 RMK AO2 RAB1258 P0008 T00780056
An error has occurred. This application may no longer respond until reloaded. Reload 🗙